Time;durP1;ratioP1;P1;durP2;ratioP2;P2;SDS_P1;SDS_P2;PMS_P1;PMS_P2;Temp;Humidity;BMP_temperature;BMP_pressure;BME280_temperature;BME280_humidity;BME280_pressure;Samples;Min_cycle;Max_cycle;Signal;HPM_P1;HPM_P2
2021/04/16 00:01:54;;;;;;;7.38;4.25;;;;;;;;;;4877251;29;20484;-89
2021/04/16 00:04:39;;;;;;;7.85;4.38;;;;;;;;;;4873764;29;20092;-89
2021/04/16 00:07:24;;;;;;;7.80;4.75;;;;;;;;;;4876420;29;20111;-88
2021/04/16 00:10:18;;;;;;;13.65;5.10;;;;;;;;;;4887203;29;20036;-89
2021/04/16 00:13:04;;;;;;;10.70;4.63;;;;;;;;;;4877896;29;20025;-90
2021/04/16 00:15:49;;;;;;;8.35;3.97;;;;;;;;;;4886385;29;20107;-89
2021/04/16 00:18:34;;;;;;;10.27;4.90;;;;;;;;;;4878162;29;20040;-89
2021/04/16 00:21:23;;;;;;;8.50;4.50;;;;;;;;;;4881724;29;20146;-88
2021/04/16 00:24:12;;;;;;;10.80;4.97;;;;;;;;;;4882005;29;20037;-88
2021/04/16 00:26:57;;;;;;;10.55;4.80;;;;;;;;;;4889024;29;20029;-88
2021/04/16 00:29:45;;;;;;;7.80;4.32;;;;;;;;;;4878048;29;20028;-90
2021/04/16 00:32:30;;;;;;;8.98;4.65;;;;;;;;;;4882428;29;20024;-90
2021/04/16 00:35:18;;;;;;;7.43;4.00;;;;;;;;;;4880189;29;20048;-89
2021/04/16 00:38:04;;;;;;;7.18;4.55;;;;;;;;;;4881279;29;20040;-88
2021/04/16 00:40:59;;;;;;;7.40;4.32;;;;;;;;;;4861285;29;20040;-89
2021/04/16 00:43:45;;;;;;;8.32;4.43;;;;;;;;;;4903849;29;20484;-88
2021/04/16 00:46:40;;;;;;;9.52;4.63;;;;;;;;;;4882766;29;20068;-87
2021/04/16 00:49:26;;;;;;;8.73;4.85;;;;;;;;;;4876498;29;20024;-88
2021/04/16 00:52:14;;;;;;;8.02;3.88;;;;;;;;;;4876894;29;20040;-88
2021/04/16 00:55:03;;;;;;;10.45;5.32;;;;;;;;;;4881028;29;20028;-88
2021/04/16 00:57:48;;;;;;;12.30;5.03;;;;;;;;;;4881150;29;20037;-86
2021/04/16 01:04:27;;;;;;;8.40;4.57;;;;;;;;;;4909437;29;20090;-91
2021/04/16 01:07:12;;;;;;;9.85;4.32;;;;;;;;;;4887262;29;20042;-88
2021/04/16 01:09:57;;;;;;;8.43;4.57;;;;;;;;;;4895152;29;20349;-87
2021/04/16 01:12:46;;;;;;;7.22;4.20;;;;;;;;;;4896095;29;20446;-88
2021/04/16 01:15:38;;;;;;;11.00;4.95;;;;;;;;;;4899849;29;20273;-89
2021/04/16 01:18:27;;;;;;;9.25;5.00;;;;;;;;;;4897420;29;20028;-89
2021/04/16 01:21:18;;;;;;;8.33;4.83;;;;;;;;;;4908939;29;20111;-92
2021/04/16 01:24:22;;;;;;;9.00;4.65;;;;;;;;;;4891983;29;20050;-89
2021/04/16 01:27:13;;;;;;;11.15;4.75;;;;;;;;;;4894201;29;20020;-89
2021/04/16 01:30:03;;;;;;;8.32;4.72;;;;;;;;;;4887180;29;20051;-90
2021/04/16 01:32:48;;;;;;;;;;;;;;;;;;4889039;29;20136;-90
2021/04/16 01:35:37;;;;;;;9.38;4.82;;;;;;;;;;4912671;29;20449;-90
2021/04/16 01:38:24;;;;;;;8.57;4.45;;;;;;;;;;4899336;29;20518;-90
2021/04/16 01:41:09;;;;;;;8.63;4.63;;;;;;;;;;4895506;29;20059;-90
2021/04/16 01:43:56;;;;;;;9.13;4.95;;;;;;;;;;4889631;29;20352;-90
2021/04/16 01:46:59;;;;;;;6.85;4.68;;;;;;;;;;4872030;29;20035;-89
2021/04/16 01:49:46;;;;;;;8.40;4.38;;;;;;;;;;4901052;29;20391;-90
2021/04/16 01:52:32;;;;;;;7.65;3.60;;;;;;;;;;4889729;29;20024;-91
2021/04/16 01:55:18;;;;;;;10.57;4.75;;;;;;;;;;4895144;29;20039;-90
2021/04/16 01:58:04;;;;;;;7.88;4.00;;;;;;;;;;4899098;29;20032;-89
2021/04/16 02:07:38;;;;;;;8.65;4.40;;;;;;;;;;4880685;29;20113;-89
2021/04/16 02:10:23;;;;;;;8.18;4.30;;;;;;;;;;4872153;29;20053;-89
2021/04/16 02:13:35;;;;;;;8.55;4.88;;;;;;;;;;4874131;29;20021;-90
2021/04/16 02:16:20;;;;;;;6.50;3.88;;;;;;;;;;4894773;29;20480;-88
2021/04/16 02:19:06;;;;;;;9.75;5.70;;;;;;;;;;4880189;29;20083;-88
2021/04/16 02:21:51;;;;;;;10.88;4.38;;;;;;;;;;4876225;29;20116;-89
2021/04/16 02:24:36;;;;;;;11.52;4.63;;;;;;;;;;4881092;29;20021;-88
2021/04/16 02:27:23;;;;;;;9.85;4.35;;;;;;;;;;4870993;29;20037;-90
2021/04/16 02:30:14;;;;;;;7.03;3.92;;;;;;;;;;4873986;29;20037;-91
2021/04/16 02:33:00;;;;;;;8.27;4.40;;;;;;;;;;4868152;29;20555;-90
2021/04/16 02:35:45;;;;;;;7.82;5.07;;;;;;;;;;4885249;29;20111;-90
2021/04/16 02:38:30;;;;;;;9.75;4.78;;;;;;;;;;4889641;29;20043;-89
2021/04/16 02:41:18;;;;;;;7.82;4.18;;;;;;;;;;4884200;29;20107;-90
2021/04/16 02:44:04;;;;;;;7.22;4.50;;;;;;;;;;4883708;29;20030;-90
2021/04/16 02:46:51;;;;;;;7.65;3.70;;;;;;;;;;4879362;29;20111;-89
2021/04/16 02:49:36;;;;;;;7.22;4.22;;;;;;;;;;4882091;29;20028;-88
2021/04/16 02:52:21;;;;;;;7.75;4.05;;;;;;;;;;4884948;29;20052;-87
2021/04/16 02:55:16;;;;;;;7.00;4.25;;;;;;;;;;4878076;29;20025;-88
2021/04/16 02:58:01;;;;;;;8.07;3.90;;;;;;;;;;4873282;29;20507;-87
2021/04/16 03:00:46;;;;;;;11.15;5.13;;;;;;;;;;4865385;29;20372;-89
2021/04/16 03:03:31;;;;;;;7.60;4.40;;;;;;;;;;4882785;29;20032;-90
2021/04/16 03:06:17;;;;;;;10.48;4.38;;;;;;;;;;4882105;29;20115;-86
2021/04/16 03:09:03;;;;;;;9.65;5.05;;;;;;;;;;4889763;29;20047;-88
2021/04/16 03:11:49;;;;;;;8.13;4.25;;;;;;;;;;4896973;29;20035;-87
2021/04/16 03:14:34;;;;;;;8.82;4.20;;;;;;;;;;4898365;29;20154;-88
2021/04/16 03:17:19;;;;;;;6.47;3.60;;;;;;;;;;4890394;29;20083;-88
2021/04/16 03:20:06;;;;;;;8.45;4.07;;;;;;;;;;4896232;29;20040;-88
2021/04/16 03:22:51;;;;;;;9.38;4.10;;;;;;;;;;4895880;29;20481;-88
2021/04/16 03:25:37;;;;;;;10.20;4.75;;;;;;;;;;4895986;29;20024;-89
2021/04/16 03:28:22;;;;;;;7.85;4.35;;;;;;;;;;4883560;29;20487;-87
2021/04/16 03:31:07;;;;;;;11.63;5.03;;;;;;;;;;4895564;29;20039;-90
2021/04/16 03:33:53;;;;;;;7.10;4.25;;;;;;;;;;4898881;29;20016;-87
2021/04/16 03:36:39;;;;;;;7.72;4.75;;;;;;;;;;4895791;29;20379;-89
2021/04/16 03:39:24;;;;;;;9.10;5.28;;;;;;;;;;4899923;29;20059;-87
2021/04/16 03:42:09;;;;;;;10.40;4.35;;;;;;;;;;4892763;29;20035;-88
2021/04/16 03:45:04;;;;;;;7.53;4.28;;;;;;;;;;4884339;29;20038;-90
2021/04/16 03:47:53;;;;;;;7.65;4.60;;;;;;;;;;4889387;29;20031;-91
2021/04/16 03:50:41;;;;;;;10.35;4.80;;;;;;;;;;4891571;29;20063;-89
2021/04/16 03:53:33;;;;;;;8.57;4.18;;;;;;;;;;4897987;29;20035;-89
2021/04/16 03:56:19;;;;;;;8.30;4.35;;;;;;;;;;4900569;29;20028;-90
2021/04/16 03:59:04;;;;;;;10.60;4.25;;;;;;;;;;4889595;29;20024;-90
2021/04/16 04:01:50;;;;;;;6.72;4.07;;;;;;;;;;4886821;29;20032;-89
2021/04/16 04:04:56;;;;;;;7.80;4.40;;;;;;;;;;4898979;29;20036;-90
2021/04/16 04:07:41;;;;;;;8.23;4.18;;;;;;;;;;4889095;29;20543;-89
2021/04/16 04:14:45;;;;;;;9.77;4.90;;;;;;;;;;4820342;29;20031;-89
2021/04/16 04:17:31;;;;;;;7.88;4.60;;;;;;;;;;4855177;29;20359;-90
2021/04/16 04:20:24;;;;;;;8.90;4.75;;;;;;;;;;4874329;29;20094;-90
2021/04/16 04:23:12;;;;;;;8.63;4.25;;;;;;;;;;4900247;29;20104;-90
2021/04/16 04:25:58;;;;;;;5.68;3.50;;;;;;;;;;4896703;29;20318;-88
2021/04/16 04:28:43;;;;;;;9.25;4.15;;;;;;;;;;4893262;29;20054;-89
2021/04/16 04:31:28;;;;;;;7.75;4.15;;;;;;;;;;4895980;29;20031;-89
2021/04/16 04:34:18;;;;;;;8.98;4.57;;;;;;;;;;4892952;29;20020;-89
2021/04/16 04:37:05;;;;;;;6.88;3.92;;;;;;;;;;4896608;29;20032;-90
2021/04/16 04:39:50;;;;;;;9.00;4.32;;;;;;;;;;4892586;29;20032;-90
2021/04/16 04:42:36;;;;;;;9.02;4.78;;;;;;;;;;4901751;29;20043;-90
2021/04/16 04:45:21;;;;;;;6.72;3.97;;;;;;;;;;4899172;29;20060;-90
2021/04/16 04:48:07;;;;;;;8.93;4.30;;;;;;;;;;4900925;29;20024;-89
2021/04/16 04:51:00;;;;;;;8.25;4.50;;;;;;;;;;4901138;29;20043;-89
2021/04/16 04:54:08;;;;;;;8.25;4.30;;;;;;;;;;4896016;29;20024;-90
2021/04/16 04:56:53;;;;;;;7.90;4.70;;;;;;;;;;4895588;29;20150;-91
2021/04/16 04:59:43;;;;;;;10.80;4.32;;;;;;;;;;4895082;29;20201;-91
2021/04/16 05:02:38;;;;;;;;;;;;;;;;;;;;;
2021/04/16 05:05:25;;;;;;;7.22;4.30;;;;;;;;;;4896989;29;20043;-89
2021/04/16 05:15:21;;;;;;;9.32;4.75;;;;;;;;;;4894267;29;20057;-90
2021/04/16 05:18:15;;;;;;;8.90;4.45;;;;;;;;;;4857570;29;20124;-87
2021/04/16 05:21:00;;;;;;;9.45;4.75;;;;;;;;;;4879964;29;20427;-87
2021/04/16 05:23:46;;;;;;;9.13;4.90;;;;;;;;;;4886770;29;20733;-89
2021/04/16 05:26:33;;;;;;;8.40;5.05;;;;;;;;;;4882480;29;20055;-89
2021/04/16 05:29:19;;;;;;;7.05;4.35;;;;;;;;;;4891785;29;20037;-87
2021/04/16 05:32:07;;;;;;;12.35;4.60;;;;;;;;;;4888882;29;20080;-87
2021/04/16 05:34:54;;;;;;;9.45;4.55;;;;;;;;;;4889684;29;20024;-89
2021/04/16 05:37:43;;;;;;;66.40;42.70;;;;;;;;;;4881642;29;20032;-89
2021/04/16 05:40:29;;;;;;;15.90;8.80;;;;;;;;;;4877093;29;20033;-89
2021/04/16 05:43:14;;;;;;;11.80;5.50;;;;;;;;;;4861568;29;20402;-91
2021/04/16 05:46:08;;;;;;;8.57;4.80;;;;;;;;;;4879855;29;20048;-91
2021/04/16 05:48:53;;;;;;;9.73;5.43;;;;;;;;;;4877399;29;20035;-86
2021/04/16 05:51:39;;;;;;;10.00;5.15;;;;;;;;;;4874186;29;20037;-85
2021/04/16 05:54:24;;;;;;;10.20;5.63;;;;;;;;;;4869898;29;20036;-86
2021/04/16 05:57:18;;;;;;;10.95;5.05;;;;;;;;;;4870246;29;20395;-92
2021/04/16 06:00:05;;;;;;;10.73;4.82;;;;;;;;;;4865928;29;20036;-84
2021/04/16 06:02:53;;;;;;;11.55;4.93;;;;;;;;;;4880887;29;20021;-83
2021/04/16 06:05:38;;;;;;;14.05;6.10;;;;;;;;;;4863344;29;20036;-84
2021/04/16 06:08:24;;;;;;;18.23;9.75;;;;;;;;;;4867342;29;20025;-82
2021/04/16 06:11:10;;;;;;;17.15;8.23;;;;;;;;;;4888664;29;20526;-82
2021/04/16 06:13:55;;;;;;;8.45;4.57;;;;;;;;;;4894592;29;20466;-83
2021/04/16 06:16:40;;;;;;;8.98;4.20;;;;;;;;;;4895538;29;20028;-82
2021/04/16 06:19:26;;;;;;;9.27;5.20;;;;;;;;;;4895296;29;20036;-83
2021/04/16 06:22:15;;;;;;;9.98;4.97;;;;;;;;;;4898255;29;20519;-84
2021/04/16 06:25:01;;;;;;;9.73;5.07;;;;;;;;;;4895784;29;20040;-84
2021/04/16 06:27:46;;;;;;;10.80;5.00;;;;;;;;;;4900323;29;20027;-85
2021/04/16 06:30:31;;;;;;;9.52;5.00;;;;;;;;;;4897286;29;20036;-85
2021/04/16 06:33:18;;;;;;;10.20;5.00;;;;;;;;;;4895732;29;20043;-84
2021/04/16 06:36:06;;;;;;;9.20;5.47;;;;;;;;;;4898192;29;20475;-86
2021/04/16 06:38:51;;;;;;;9.02;5.40;;;;;;;;;;4887961;29;20396;-86
2021/04/16 06:41:38;;;;;;;7.55;4.78;;;;;;;;;;4893699;29;20032;-84
2021/04/16 06:44:24;;;;;;;15.38;5.47;;;;;;;;;;4899872;29;20060;-86
2021/04/16 06:47:15;;;;;;;10.45;5.35;;;;;;;;;;4897027;29;20517;-83
2021/04/16 06:50:01;;;;;;;8.15;5.00;;;;;;;;;;4888701;29;20041;-85
2021/04/16 06:52:50;;;;;;;13.32;5.15;;;;;;;;;;4897321;29;20082;-84
2021/04/16 06:55:55;;;;;;;8.52;5.70;;;;;;;;;;4889816;29;20111;-87
2021/04/16 06:58:58;;;;;;;8.95;4.93;;;;;;;;;;4891153;29;20024;-86
2021/04/16 07:01:46;;;;;;;7.55;4.13;;;;;;;;;;4908784;29;20036;-86
2021/04/16 07:04:32;;;;;;;9.45;5.05;;;;;;;;;;4891975;29;20040;-85
2021/04/16 07:07:17;;;;;;;7.57;4.68;;;;;;;;;;4896504;29;20044;-85
2021/04/16 07:10:02;;;;;;;15.90;7.30;;;;;;;;;;4889264;29;20093;-85
2021/04/16 07:12:48;;;;;;;15.25;9.45;;;;;;;;;;4884917;29;20060;-84
2021/04/16 07:15:35;;;;;;;11.73;5.57;;;;;;;;;;4873435;29;20024;-86
2021/04/16 07:18:23;;;;;;;12.02;4.97;;;;;;;;;;4879687;29;20487;-86
2021/04/16 07:21:09;;;;;;;7.35;5.55;;;;;;;;;;4891761;29;20040;-84
2021/04/16 07:23:58;;;;;;;7.50;5.20;;;;;;;;;;4877346;29;20024;-83
2021/04/16 07:26:49;;;;;;;7.10;4.60;;;;;;;;;;4866869;29;20044;-85
2021/04/16 07:29:36;;;;;;;7.47;4.32;;;;;;;;;;4875472;29;20124;-84
2021/04/16 07:32:32;;;;;;;9.23;4.57;;;;;;;;;;4886502;29;20041;-84
2021/04/16 07:35:19;;;;;;;11.75;4.38;;;;;;;;;;4878920;29;20036;-84
2021/04/16 07:38:14;;;;;;;7.28;4.47;;;;;;;;;;4877494;29;20024;-85
2021/04/16 07:41:16;;;;;;;7.82;4.70;;;;;;;;;;4876514;29;20736;-87
2021/04/16 07:44:02;;;;;;;6.25;4.13;;;;;;;;;;4878066;29;20036;-84
2021/04/16 07:46:49;;;;;;;7.95;5.22;;;;;;;;;;4877198;29;20551;-84
2021/04/16 07:49:35;;;;;;;5.97;4.63;;;;;;;;;;4876779;29;20839;-82
2021/04/16 07:52:25;;;;;;;10.02;4.97;;;;;;;;;;4860625;29;20131;-82
2021/04/16 07:55:16;;;;;;;9.35;5.28;;;;;;;;;;4870589;29;20024;-85
2021/04/16 07:58:05;;;;;;;9.13;5.18;;;;;;;;;;4875372;29;20032;-84
2021/04/16 08:00:51;;;;;;;7.25;4.65;;;;;;;;;;4875935;29;20384;-85
2021/04/16 08:03:44;;;;;;;6.43;4.30;;;;;;;;;;4875645;29;20024;-85
2021/04/16 08:06:29;;;;;;;7.93;5.18;;;;;;;;;;4878606;29;20040;-83
2021/04/16 08:09:35;;;;;;;5.70;4.57;;;;;;;;;;4879523;29;20024;-82
2021/04/16 08:12:24;;;;;;;8.90;5.15;;;;;;;;;;4893686;29;20817;-83
2021/04/16 08:15:12;;;;;;;7.03;4.70;;;;;;;;;;4885633;29;20076;-84
2021/04/16 08:18:06;;;;;;;22.02;13.30;;;;;;;;;;4887627;29;20400;-81
2021/04/16 08:20:51;;;;;;;8.05;4.93;;;;;;;;;;4907158;29;20091;-82
2021/04/16 08:23:57;;;;;;;7.50;4.93;;;;;;;;;;4883103;29;20032;-88
2021/04/16 08:26:43;;;;;;;6.65;4.68;;;;;;;;;;4903777;29;20024;-86
2021/04/16 08:29:35;;;;;;;8.35;4.78;;;;;;;;;;4906078;29;20050;-80
2021/04/16 08:32:26;;;;;;;8.25;4.63;;;;;;;;;;4896679;29;20566;-80
2021/04/16 08:35:24;;;;;;;6.53;4.63;;;;;;;;;;4903673;29;20473;-81
2021/04/16 08:38:10;;;;;;;8.57;4.85;;;;;;;;;;4887278;29;20028;-80
2021/04/16 08:40:58;;;;;;;7.28;4.70;;;;;;;;;;4897475;29;20491;-80
2021/04/16 08:43:46;;;;;;;8.93;4.68;;;;;;;;;;4893319;29;20454;-81
2021/04/16 08:46:34;;;;;;;6.47;4.47;;;;;;;;;;4884576;29;20478;-80
2021/04/16 08:49:25;;;;;;;7.80;4.90;;;;;;;;;;4892526;29;20036;-82
2021/04/16 08:52:14;;;;;;;7.70;5.30;;;;;;;;;;4895801;29;20024;-82
2021/04/16 08:55:11;;;;;;;9.23;5.45;;;;;;;;;;4893261;29;20032;-81
2021/04/16 08:58:16;;;;;;;9.88;6.05;;;;;;;;;;4897612;29;20031;-81
2021/04/16 09:01:07;;;;;;;9.60;5.10;;;;;;;;;;4893720;29;20046;-80
2021/04/16 09:03:55;;;;;;;9.45;4.78;;;;;;;;;;4895746;29;20025;-81
2021/04/16 09:06:41;;;;;;;10.55;5.32;;;;;;;;;;4895610;29;20048;-81
2021/04/16 09:09:47;;;;;;;10.60;4.65;;;;;;;;;;4891865;29;22462;-82
2021/04/16 09:12:38;;;;;;;10.60;4.53;;;;;;;;;;4888326;29;20047;-82
2021/04/16 09:15:24;;;;;;;6.22;4.20;;;;;;;;;;4894583;29;20032;-83
2021/04/16 09:18:29;;;;;;;7.82;3.78;;;;;;;;;;4897780;29;20036;-84
2021/04/16 09:21:17;;;;;;;4.55;3.55;;;;;;;;;;4885452;29;20028;-84
2021/04/16 09:24:08;;;;;;;6.32;3.70;;;;;;;;;;4897280;29;20036;-83
2021/04/16 09:26:54;;;;;;;6.88;3.70;;;;;;;;;;4892922;29;20495;-82
2021/04/16 09:29:40;;;;;;;6.70;3.97;;;;;;;;;;4892894;29;20036;-84
2021/04/16 09:32:35;;;;;;;6.88;4.68;;;;;;;;;;4899014;29;20095;-82
2021/04/16 09:35:35;;;;;;;5.82;3.95;;;;;;;;;;4892786;29;20442;-83
2021/04/16 09:38:20;;;;;;;6.25;4.07;;;;;;;;;;4893771;29;20114;-83
2021/04/16 09:41:12;;;;;;;93.97;48.53;;;;;;;;;;4901262;29;20103;-84
2021/04/16 09:44:20;;;;;;;7.50;4.93;;;;;;;;;;4911480;29;20068;-87
2021/04/16 09:47:05;;;;;;;5.55;4.05;;;;;;;;;;4900891;29;20056;-84
2021/04/16 09:49:59;;;;;;;6.82;4.00;;;;;;;;;;4909193;29;20056;-86
2021/04/16 09:52:46;;;;;;;5.43;3.40;;;;;;;;;;4897152;29;20020;-87
2021/04/16 09:55:40;;;;;;;9.23;4.18;;;;;;;;;;4902964;29;20063;-85
2021/04/16 09:58:31;;;;;;;6.80;4.10;;;;;;;;;;4901373;29;20032;-82
2021/04/16 10:01:21;;;;;;;7.10;4.45;;;;;;;;;;4900858;29;20036;-84
2021/04/16 10:04:07;;;;;;;8.30;4.13;;;;;;;;;;4892317;29;20033;-85
2021/04/16 10:06:53;;;;;;;8.73;5.93;;;;;;;;;;4896972;29;20069;-82
2021/04/16 10:09:38;;;;;;;5.85;4.15;;;;;;;;;;4895089;29;20092;-83
2021/04/16 10:12:26;;;;;;;6.97;3.83;;;;;;;;;;4900293;29;20028;-83
2021/04/16 10:15:16;;;;;;;5.50;3.72;;;;;;;;;;4901641;29;20047;-82
2021/04/16 10:18:11;;;;;;;7.97;4.38;;;;;;;;;;4895071;29;20113;-78
2021/04/16 10:20:56;;;;;;;6.32;3.38;;;;;;;;;;4898250;29;20104;-78
2021/04/16 10:23:49;;;;;;;8.75;3.88;;;;;;;;;;4894860;29;20048;-78
2021/04/16 10:36:55;;;;;;;6.88;4.25;;;;;;;;;;4887558;29;20324;-83
2021/04/16 10:43:55;;;;;;;6.63;3.80;;;;;;;;;;4908600;29;20028;-83
2021/04/16 11:44:42;;;;;;;6.70;4.25;;;;;;;;;;4888501;29;20071;-81
2021/04/16 12:39:47;;;;;;;7.15;3.88;;;;;;;;;;4884711;29;20032;-84
2021/04/16 12:42:33;;;;;;;8.52;4.53;;;;;;;;;;4885466;29;20515;-84
2021/04/16 12:45:18;;;;;;;7.65;4.47;;;;;;;;;;4894672;29;20028;-83
2021/04/16 12:48:04;;;;;;;6.05;3.60;;;;;;;;;;4892962;29;20670;-82
2021/04/16 12:50:50;;;;;;;6.95;3.88;;;;;;;;;;4893712;29;20020;-82
2021/04/16 12:53:35;;;;;;;8.40;4.53;;;;;;;;;;4894392;29;20035;-77
2021/04/16 12:56:22;;;;;;;5.90;4.15;;;;;;;;;;4897081;29;20032;-78
2021/04/16 12:59:10;;;;;;;25.17;17.73;;;;;;;;;;4889919;29;20102;-78
2021/04/16 13:01:55;;;;;;;9.77;6.03;;;;;;;;;;4909175;29;20027;-77
2021/04/16 13:04:41;;;;;;;7.85;3.90;;;;;;;;;;4898091;29;20738;-77
2021/04/16 13:07:27;;;;;;;11.38;4.38;;;;;;;;;;4886361;29;20036;-76
2021/04/16 13:10:14;;;;;;;6.57;4.57;;;;;;;;;;4893371;29;20403;-76
2021/04/16 13:12:59;;;;;;;7.88;4.05;;;;;;;;;;4896136;29;20032;-78
2021/04/16 13:15:44;;;;;;;6.25;4.15;;;;;;;;;;4900895;29;20044;-77
2021/04/16 13:18:35;;;;;;;9.07;4.57;;;;;;;;;;4897354;29;20491;-79
2021/04/16 13:21:34;;;;;;;5.82;3.75;;;;;;;;;;4900205;29;20492;-77
2021/04/16 13:24:20;;;;;;;19.13;12.20;;;;;;;;;;4904362;29;20711;-78
2021/04/16 13:27:07;;;;;;;19.38;11.05;;;;;;;;;;4903083;29;20035;-79
2021/04/16 13:29:52;;;;;;;7.05;5.28;;;;;;;;;;4910703;29;20032;-83
2021/04/16 13:32:40;;;;;;;9.60;4.53;;;;;;;;;;4898909;29;20110;-84
2021/04/16 13:35:31;;;;;;;7.25;4.20;;;;;;;;;;4900328;29;20448;-83
2021/04/16 13:38:18;;;;;;;9.80;3.85;;;;;;;;;;4892472;29;20037;-83
2021/04/16 13:41:03;;;;;;;5.63;4.05;;;;;;;;;;4897008;29;20028;-83
2021/04/16 13:43:49;;;;;;;6.03;3.58;;;;;;;;;;4897521;29;20479;-83
2021/04/16 13:46:36;;;;;;;7.57;3.63;;;;;;;;;;4897143;29;20044;-83
2021/04/16 13:49:23;;;;;;;7.13;3.20;;;;;;;;;;4893671;29;20047;-83
2021/04/16 13:52:08;;;;;;;7.35;3.35;;;;;;;;;;4896849;29;20043;-84
2021/04/16 13:54:53;;;;;;;6.13;3.78;;;;;;;;;;4896634;29;20657;-83
2021/04/16 13:57:40;;;;;;;7.22;3.60;;;;;;;;;;4895007;29;20439;-84
2021/04/16 14:00:27;;;;;;;7.18;4.45;;;;;;;;;;4896898;29;20046;-85
2021/04/16 14:03:24;;;;;;;9.02;4.05;;;;;;;;;;4901232;29;20028;-82
2021/04/16 14:06:15;;;;;;;5.10;3.40;;;;;;;;;;4884176;29;20071;-83
2021/04/16 14:09:03;;;;;;;8.75;4.10;;;;;;;;;;4898065;29;20028;-83
2021/04/16 14:11:48;;;;;;;5.30;3.60;;;;;;;;;;4891810;29;20135;-83
2021/04/16 14:14:33;;;;;;;6.78;3.03;;;;;;;;;;4895699;29;20119;-83
2021/04/16 14:17:25;;;;;;;3.85;2.50;;;;;;;;;;4897301;29;20469;-85
2021/04/16 14:20:15;;;;;;;14.93;9.60;;;;;;;;;;4901110;29;20115;-83
2021/04/16 14:23:02;;;;;;;7.03;3.53;;;;;;;;;;4896389;29;20035;-83
2021/04/16 14:25:48;;;;;;;3.65;2.95;;;;;;;;;;4897143;29;20387;-83
2021/04/16 14:28:33;;;;;;;3.80;2.70;;;;;;;;;;4891604;29;20036;-83
2021/04/16 14:31:18;;;;;;;5.18;2.72;;;;;;;;;;4899115;29;20062;-84
2021/04/16 14:34:06;;;;;;;4.43;2.80;;;;;;;;;;4887627;29;20024;-85
2021/04/16 14:37:02;;;;;;;2.65;2.42;;;;;;;;;;4894544;29;20419;-89
2021/04/16 14:39:54;;;;;;;6.22;3.42;;;;;;;;;;4900900;29;20063;-85
2021/04/16 14:42:42;;;;;;;4.07;2.50;;;;;;;;;;4892474;29;20035;-87
2021/04/16 14:45:33;;;;;;;3.55;2.85;;;;;;;;;;4894953;29;20035;-87
2021/04/16 14:48:19;;;;;;;5.32;2.63;;;;;;;;;;4883108;29;20366;-87
2021/04/16 14:51:10;;;;;;;8.30;2.72;;;;;;;;;;4900707;29;20024;-86
2021/04/16 14:54:00;;;;;;;6.72;3.97;;;;;;;;;;4897765;29;20452;-86
2021/04/16 14:56:45;;;;;;;7.75;4.03;;;;;;;;;;4900128;29;20224;-87
2021/04/16 14:59:50;;;;;;;4.28;3.08;;;;;;;;;;4898493;29;20035;-87
2021/04/16 15:02:40;;;;;;;5.65;2.55;;;;;;;;;;4904949;29;20683;-87
2021/04/16 15:05:26;;;;;;;5.10;2.50;;;;;;;;;;4894194;29;20582;-87
2021/04/16 15:08:16;;;;;;;4.05;2.42;;;;;;;;;;4888626;29;20039;-86
2021/04/16 15:11:04;;;;;;;3.17;2.38;;;;;;;;;;4896759;29;20048;-87
2021/04/16 15:13:49;;;;;;;3.42;2.25;;;;;;;;;;4894092;29;20383;-88
2021/04/16 15:16:39;;;;;;;4.78;2.30;;;;;;;;;;4896613;29;20036;-87
2021/04/16 15:19:33;;;;;;;9.60;6.28;;;;;;;;;;4896182;29;20036;-87
2021/04/16 15:22:23;;;;;;;3.92;2.70;;;;;;;;;;4899591;29;20481;-87
2021/04/16 15:25:08;;;;;;;3.72;2.40;;;;;;;;;;4893046;29;20020;-88
2021/04/16 15:27:59;;;;;;;3.88;2.70;;;;;;;;;;4896524;29;20616;-87
2021/04/16 15:30:44;;;;;;;3.75;2.30;;;;;;;;;;4897694;29;20036;-86
2021/04/16 15:46:10;;;;;;;4.05;2.30;;;;;;;;;;4888244;29;20035;-87
2021/04/16 15:48:56;;;;;;;5.72;2.38;;;;;;;;;;4911239;29;20020;-80
2021/04/16 15:51:41;;;;;;;3.50;2.28;;;;;;;;;;4892735;29;20051;-86
2021/04/16 15:54:26;;;;;;;5.32;2.35;;;;;;;;;;4901393;29;20380;-86
2021/04/16 15:57:21;;;;;;;3.97;2.90;;;;;;;;;;4897308;29;20028;-88
2021/04/16 16:00:11;;;;;;;4.22;2.85;;;;;;;;;;4897085;29;20035;-87
2021/04/16 16:02:57;;;;;;;5.68;2.72;;;;;;;;;;4910614;29;20051;-88
2021/04/16 16:05:43;;;;;;;3.35;2.67;;;;;;;;;;4901431;29;20076;-88
2021/04/16 16:08:28;;;;;;;4.78;3.30;;;;;;;;;;4899572;29;20491;-87
2021/04/16 16:11:19;;;;;;;4.07;2.72;;;;;;;;;;4877401;29;20189;-88
2021/04/16 16:14:05;;;;;;;4.55;3.03;;;;;;;;;;4888712;29;20495;-86
2021/04/16 16:16:52;;;;;;;7.22;3.10;;;;;;;;;;4872621;29;20087;-88
2021/04/16 16:19:37;;;;;;;5.60;3.47;;;;;;;;;;4867505;29;20059;-87
2021/04/16 16:22:22;;;;;;;6.72;3.55;;;;;;;;;;4871909;29;20029;-87
2021/04/16 16:25:10;;;;;;;3.88;2.80;;;;;;;;;;4882400;29;20028;-87
2021/04/16 16:28:01;;;;;;;5.60;3.17;;;;;;;;;;4874962;29;20051;-86
2021/04/16 16:30:53;;;;;;;5.53;3.50;;;;;;;;;;4872129;29;20031;-85
2021/04/16 16:33:39;;;;;;;7.75;3.38;;;;;;;;;;4877621;29;20029;-86
2021/04/16 16:36:24;;;;;;;4.80;3.28;;;;;;;;;;4877669;29;20032;-85
2021/04/16 16:39:12;;;;;;;4.15;2.88;;;;;;;;;;4863502;29;20032;-86
2021/04/16 16:41:58;;;;;;;4.28;3.10;;;;;;;;;;4888499;29;20057;-89
2021/04/16 16:44:46;;;;;;;4.00;2.72;;;;;;;;;;4878204;29;20031;-88
2021/04/16 16:47:31;;;;;;;4.43;3.28;;;;;;;;;;4873575;29;20877;-84
2021/04/16 16:50:18;;;;;;;5.72;3.10;;;;;;;;;;4871574;29;20027;-82
2021/04/16 16:53:03;;;;;;;4.68;3.47;;;;;;;;;;4871921;29;20029;-83
2021/04/16 16:55:49;;;;;;;10.13;3.35;;;;;;;;;;4890711;29;20028;-88
2021/04/16 16:58:38;;;;;;;6.40;3.75;;;;;;;;;;4875743;29;20365;-87
2021/04/16 17:01:26;;;;;;;6.93;3.65;;;;;;;;;;4879656;29;20041;-86
2021/04/16 17:04:11;;;;;;;9.88;3.88;;;;;;;;;;4866470;29;20478;-87
2021/04/16 17:06:59;;;;;;;8.90;4.28;;;;;;;;;;4878030;29;20051;-91
2021/04/16 17:09:45;;;;;;;6.00;3.65;;;;;;;;;;4880422;29;20519;-88
2021/04/16 17:12:39;;;;;;;4.72;3.60;;;;;;;;;;4893815;29;20028;-88
2021/04/16 17:15:26;;;;;;;5.75;3.33;;;;;;;;;;4893461;29;20024;-89
2021/04/16 17:18:20;;;;;;;6.05;3.53;;;;;;;;;;4892596;29;20442;-89
2021/04/16 17:21:21;;;;;;;5.03;3.63;;;;;;;;;;4885594;29;20029;-93
2021/04/16 17:24:10;;;;;;;13.05;4.78;;;;;;;;;;4898348;29;20024;-93
2021/04/16 17:30:41;;;;;;;6.40;3.35;;;;;;;;;;4884944;29;20068;-91
2021/04/16 17:33:28;;;;;;;6.80;3.30;;;;;;;;;;4894531;29;20104;-91
2021/04/16 17:36:13;;;;;;;4.10;2.90;;;;;;;;;;4901662;29;20042;-88
2021/04/16 17:39:25;;;;;;;7.53;3.80;;;;;;;;;;4899997;29;20058;-89
2021/04/16 17:42:25;;;;;;;5.63;3.42;;;;;;;;;;4900142;29;20567;-92
2021/04/16 17:45:37;;;;;;;;;;;;;;;;;;;;;
2021/04/16 17:52:17;;;;;;;6.47;3.30;;;;;;;;;;4783038;29;20103;-91
2021/04/16 17:55:05;;;;;;;7.25;3.80;;;;;;;;;;4768140;29;20259;-90
2021/04/16 17:57:52;;;;;;;8.98;4.60;;;;;;;;;;4868956;29;20032;-91
2021/04/16 18:14:44;;;;;;;6.85;3.97;;;;;;;;;;4916439;29;20060;-92
2021/04/16 18:24:47;;;;;;;5.25;3.53;;;;;;;;;;4861112;29;20038;-93
2021/04/16 18:28:07;;;;;;;10.25;5.72;;;;;;;;;;4890266;29;20048;-92
2021/04/16 18:34:26;;;;;;;6.30;3.50;;;;;;;;;;4861491;29;20038;-86
2021/04/16 18:37:17;;;;;;;5.65;3.30;;;;;;;;;;4893641;29;20372;-86
2021/04/16 18:40:21;;;;;;;6.35;3.63;;;;;;;;;;4905730;29;20372;-89
2021/04/16 18:43:07;;;;;;;4.90;2.70;;;;;;;;;;4907638;29;20035;-88
2021/04/16 18:45:52;;;;;;;5.25;3.15;;;;;;;;;;4900890;29;20099;-89
2021/04/16 18:48:37;;;;;;;5.78;3.67;;;;;;;;;;4900069;29;20051;-88
2021/04/16 18:51:25;;;;;;;5.38;3.72;;;;;;;;;;4901901;29;20461;-82
2021/04/16 18:54:12;;;;;;;5.82;3.42;;;;;;;;;;4894605;29;20031;-83
2021/04/16 18:56:58;;;;;;;8.90;3.80;;;;;;;;;;4897909;29;20127;-82
2021/04/16 18:59:43;;;;;;;5.25;3.63;;;;;;;;;;4891382;29;20071;-82
2021/04/16 19:02:28;;;;;;;5.78;3.28;;;;;;;;;;4899108;29;20040;-80
2021/04/16 19:05:14;;;;;;;7.13;3.22;;;;;;;;;;4888128;29;20035;-81
2021/04/16 19:07:59;;;;;;;4.05;3.05;;;;;;;;;;4898973;29;20034;-81
2021/04/16 19:10:45;;;;;;;8.63;4.68;;;;;;;;;;4895909;29;20104;-82
2021/04/16 19:13:30;;;;;;;7.55;3.90;;;;;;;;;;4889059;29;20491;-83
2021/04/16 19:16:15;;;;;;;7.00;3.80;;;;;;;;;;4895188;29;20034;-82
2021/04/16 19:19:01;;;;;;;5.43;3.75;;;;;;;;;;4895074;29;20020;-82
2021/04/16 19:21:46;;;;;;;6.20;3.67;;;;;;;;;;4893222;29;20028;-83
2021/04/16 19:24:39;;;;;;;6.53;3.88;;;;;;;;;;4889468;29;20427;-83
2021/04/16 19:27:25;;;;;;;6.28;3.90;;;;;;;;;;4894275;29;20032;-84
2021/04/16 19:30:13;;;;;;;7.03;3.70;;;;;;;;;;4890533;29;20106;-83
2021/04/16 19:32:58;;;;;;;13.43;7.97;;;;;;;;;;4895056;29;20016;-83
2021/04/16 19:35:43;;;;;;;13.38;7.07;;;;;;;;;;4892619;29;20475;-84
2021/04/16 19:38:28;;;;;;;7.45;3.85;;;;;;;;;;4882240;29;20203;-84
2021/04/16 19:41:20;;;;;;;5.45;3.72;;;;;;;;;;4893004;29;20046;-84
2021/04/16 19:44:05;;;;;;;4.75;3.50;;;;;;;;;;4895944;29;20363;-84
2021/04/16 19:46:52;;;;;;;6.05;3.95;;;;;;;;;;4894913;29;20036;-83
2021/04/16 19:53:35;;;;;;;8.43;4.40;;;;;;;;;;4893432;29;20095;-83
2021/04/16 20:03:05;;;;;;;6.10;3.85;;;;;;;;;;4895542;29;20030;-83
2021/04/16 20:05:24;;;;;;;8.13;5.03;;;;;;;;;;4888461;29;20024;-82
2021/04/16 20:09:29;;;;;;;4.65;3.38;;;;;;;;;;4888733;29;20095;-81
2021/04/16 20:17:12;;;;;;;7.78;4.15;;;;;;;;;;4883148;29;20032;-83
2021/04/16 20:20:17;;;;;;;6.53;3.97;;;;;;;;;;4892479;29;20083;-83